sensor_id;sensor_type;location;lat;lon;timestamp;temperature;humidity
871;DHT22;422;51.280;7.236;2024-02-26T00:00:40;5.10;1.00
871;DHT22;422;51.280;7.236;2024-02-26T00:03:07;5.10;99.90
871;DHT22;422;51.280;7.236;2024-02-26T00:05:35;5.10;99.90
871;DHT22;422;51.280;7.236;2024-02-26T00:08:04;5.10;99.90
871;DHT22;422;51.280;7.236;2024-02-26T00:10:31;5.10;1.00
871;DHT22;422;51.280;7.236;2024-02-26T00:13:00;5.10;1.00
871;DHT22;422;51.280;7.236;2024-02-26T00:15:28;5.10;1.00
871;DHT22;422;51.280;7.236;2024-02-26T00:17:55;5.10;99.90
871;DHT22;422;51.280;7.236;2024-02-26T00:20:23;5.10;99.90
871;DHT22;422;51.280;7.236;2024-02-26T00:22:50;5.10;99.90
871;DHT22;422;51.280;7.236;2024-02-26T00:25:17;5.10;1.00
871;DHT22;422;51.280;7.236;2024-02-26T00:27:45;5.10;1.00
871;DHT22;422;51.280;7.236;2024-02-26T00:30:14;5.10;1.00
871;DHT22;422;51.280;7.236;2024-02-26T00:32:41;5.10;1.00
871;DHT22;422;51.280;7.236;2024-02-26T00:35:09;5.10;1.00
871;DHT22;422;51.280;7.236;2024-02-26T00:37:36;5.10;99.90
871;DHT22;422;51.280;7.236;2024-02-26T00:40:04;5.10;1.00
871;DHT22;422;51.280;7.236;2024-02-26T00:42:32;5.10;99.90
871;DHT22;422;51.280;7.236;2024-02-26T00:44:59;5.10;99.90
871;DHT22;422;51.280;7.236;2024-02-26T00:47:29;5.10;99.90
871;DHT22;422;51.280;7.236;2024-02-26T00:49:56;5.00;99.90
871;DHT22;422;51.280;7.236;2024-02-26T00:52:23;5.00;99.90
871;DHT22;422;51.280;7.236;2024-02-26T00:54:51;5.00;99.90
871;DHT22;422;51.280;7.236;2024-02-26T00:57:18;4.90;99.90
871;DHT22;422;51.280;7.236;2024-02-26T00:59:45;4.90;99.90
871;DHT22;422;51.280;7.236;2024-02-26T01:02:14;4.80;99.90
871;DHT22;422;51.280;7.236;2024-02-26T01:04:42;4.70;99.90
871;DHT22;422;51.280;7.236;2024-02-26T01:07:10;4.70;99.90
871;DHT22;422;51.280;7.236;2024-02-26T01:09:37;4.70;1.00
871;DHT22;422;51.280;7.236;2024-02-26T01:12:05;4.60;1.00
871;DHT22;422;51.280;7.236;2024-02-26T01:14:33;4.60;1.00
871;DHT22;422;51.280;7.236;2024-02-26T01:17:01;4.60;1.00
871;DHT22;422;51.280;7.236;2024-02-26T01:19:28;4.60;1.00
871;DHT22;422;51.280;7.236;2024-02-26T01:21:57;4.60;1.00
871;DHT22;422;51.280;7.236;2024-02-26T01:24:24;4.50;1.00
871;DHT22;422;51.280;7.236;2024-02-26T01:26:51;4.50;1.00
871;DHT22;422;51.280;7.236;2024-02-26T01:29:19;4.50;1.00
871;DHT22;422;51.280;7.236;2024-02-26T01:31:46;4.50;1.00
871;DHT22;422;51.280;7.236;2024-02-26T01:34:13;4.50;28.80
871;DHT22;422;51.280;7.236;2024-02-26T01:36:41;4.50;99.90
871;DHT22;422;51.280;7.236;2024-02-26T01:39:10;4.50;22.10
871;DHT22;422;51.280;7.236;2024-02-26T01:41:38;4.50;99.90
871;DHT22;422;51.280;7.236;2024-02-26T01:44:06;4.50;99.90
871;DHT22;422;51.280;7.236;2024-02-26T01:46:35;4.50;62.00
871;DHT22;422;51.280;7.236;2024-02-26T01:49:03;4.50;1.00
871;DHT22;422;51.280;7.236;2024-02-26T01:51:31;4.50;85.10
871;DHT22;422;51.280;7.236;2024-02-26T01:54:00;4.50;90.40
871;DHT22;422;51.280;7.236;2024-02-26T01:56:31;4.50;65.60
871;DHT22;422;51.280;7.236;2024-02-26T01:58:58;4.50;94.00
871;DHT22;422;51.280;7.236;2024-02-26T02:01:27;4.50;45.70
871;DHT22;422;51.280;7.236;2024-02-26T02:03:57;4.50;1.00
871;DHT22;422;51.280;7.236;2024-02-26T02:06:25;4.50;99.90
871;DHT22;422;51.280;7.236;2024-02-26T02:08:54;4.50;47.20
871;DHT22;422;51.280;7.236;2024-02-26T02:11:21;4.50;99.90
871;DHT22;422;51.280;7.236;2024-02-26T02:13:50;4.50;97.50
871;DHT22;422;51.280;7.236;2024-02-26T02:16:17;4.60;1.00
871;DHT22;422;51.280;7.236;2024-02-26T02:18:44;4.50;1.00
871;DHT22;422;51.280;7.236;2024-02-26T02:21:13;4.50;99.90
871;DHT22;422;51.280;7.236;2024-02-26T02:23:40;4.50;1.00
871;DHT22;422;51.280;7.236;2024-02-26T02:26:12;4.60;99.90
871;DHT22;422;51.280;7.236;2024-02-26T02:28:40;4.50;99.90
871;DHT22;422;51.280;7.236;2024-02-26T02:31:07;4.50;99.90
871;DHT22;422;51.280;7.236;2024-02-26T02:33:35;4.60;99.90
871;DHT22;422;51.280;7.236;2024-02-26T02:36:03;4.50;99.90
871;DHT22;422;51.280;7.236;2024-02-26T02:38:36;4.60;99.90
871;DHT22;422;51.280;7.236;2024-02-26T02:41:03;4.60;1.00
871;DHT22;422;51.280;7.236;2024-02-26T02:43:31;4.60;1.00
871;DHT22;422;51.280;7.236;2024-02-26T02:45:58;4.50;91.80
871;DHT22;422;51.280;7.236;2024-02-26T02:48:28;4.50;99.90
871;DHT22;422;51.280;7.236;2024-02-26T02:50:56;4.50;99.90
871;DHT22;422;51.280;7.236;2024-02-26T02:53:23;4.50;99.90
871;DHT22;422;51.280;7.236;2024-02-26T02:55:51;4.50;1.00
871;DHT22;422;51.280;7.236;2024-02-26T02:58:18;4.40;99.90
871;DHT22;422;51.280;7.236;2024-02-26T03:00:46;4.30;1.00
871;DHT22;422;51.280;7.236;2024-02-26T03:03:14;4.30;1.00
871;DHT22;422;51.280;7.236;2024-02-26T03:05:41;4.30;99.90
871;DHT22;422;51.280;7.236;2024-02-26T03:08:08;4.30;99.90
871;DHT22;422;51.280;7.236;2024-02-26T03:10:35;4.30;99.90
871;DHT22;422;51.280;7.236;2024-02-26T03:13:04;4.30;1.00
871;DHT22;422;51.280;7.236;2024-02-26T03:15:32;4.30;1.00
871;DHT22;422;51.280;7.236;2024-02-26T03:17:59;4.30;1.00
871;DHT22;422;51.280;7.236;2024-02-26T03:20:26;4.30;57.40
871;DHT22;422;51.280;7.236;2024-02-26T03:22:54;4.30;1.00
871;DHT22;422;51.280;7.236;2024-02-26T03:25:21;4.20;22.50
871;DHT22;422;51.280;7.236;2024-02-26T03:27:48;4.20;82.80
871;DHT22;422;51.280;7.236;2024-02-26T03:30:17;4.20;99.90
871;DHT22;422;51.280;7.236;2024-02-26T03:32:44;4.20;99.90
871;DHT22;422;51.280;7.236;2024-02-26T03:35:12;4.20;1.00
871;DHT22;422;51.280;7.236;2024-02-26T03:37:40;4.20;1.00
871;DHT22;422;51.280;7.236;2024-02-26T03:40:08;4.10;1.00
871;DHT22;422;51.280;7.236;2024-02-26T03:42:35;4.10;1.00
871;DHT22;422;51.280;7.236;2024-02-26T03:45:02;4.00;1.00
871;DHT22;422;51.280;7.236;2024-02-26T03:47:31;4.10;51.60
871;DHT22;422;51.280;7.236;2024-02-26T03:49:59;4.10;72.60
871;DHT22;422;51.280;7.236;2024-02-26T03:52:26;4.00;32.50
871;DHT22;422;51.280;7.236;2024-02-26T03:54:53;4.10;99.90
871;DHT22;422;51.280;7.236;2024-02-26T03:57:20;4.10;99.90
871;DHT22;422;51.280;7.236;2024-02-26T03:59:47;4.10;99.90
871;DHT22;422;51.280;7.236;2024-02-26T04:02:15;4.00;99.90
871;DHT22;422;51.280;7.236;2024-02-26T04:04:46;4.00;99.90
871;DHT22;422;51.280;7.236;2024-02-26T04:07:13;4.10;1.00
871;DHT22;422;51.280;7.236;2024-02-26T04:09:41;4.00;1.00
871;DHT22;422;51.280;7.236;2024-02-26T04:12:09;4.00;99.90
871;DHT22;422;51.280;7.236;2024-02-26T04:14:36;4.00;99.90
871;DHT22;422;51.280;7.236;2024-02-26T04:17:04;4.00;99.90
871;DHT22;422;51.280;7.236;2024-02-26T04:19:31;4.00;99.90
871;DHT22;422;51.280;7.236;2024-02-26T04:22:00;4.00;99.90
871;DHT22;422;51.280;7.236;2024-02-26T04:24:27;4.00;99.90
871;DHT22;422;51.280;7.236;2024-02-26T04:26:54;4.00;1.00
871;DHT22;422;51.280;7.236;2024-02-26T04:29:21;4.00;1.00
871;DHT22;422;51.280;7.236;2024-02-26T04:31:48;4.00;1.00
871;DHT22;422;51.280;7.236;2024-02-26T04:34:16;4.00;1.00
871;DHT22;422;51.280;7.236;2024-02-26T04:36:43;4.00;99.90
871;DHT22;422;51.280;7.236;2024-02-26T04:39:12;4.00;99.90
871;DHT22;422;51.280;7.236;2024-02-26T04:41:39;4.10;99.90
871;DHT22;422;51.280;7.236;2024-02-26T04:44:06;4.00;99.90
871;DHT22;422;51.280;7.236;2024-02-26T04:46:34;4.10;1.00
871;DHT22;422;51.280;7.236;2024-02-26T04:49:01;4.10;1.00
871;DHT22;422;51.280;7.236;2024-02-26T04:51:28;4.00;1.00
871;DHT22;422;51.280;7.236;2024-02-26T04:53:55;4.00;1.00
871;DHT22;422;51.280;7.236;2024-02-26T04:56:25;4.00;1.00
871;DHT22;422;51.280;7.236;2024-02-26T04:58:52;4.00;1.00
871;DHT22;422;51.280;7.236;2024-02-26T05:01:19;4.00;1.00
871;DHT22;422;51.280;7.236;2024-02-26T05:03:46;4.00;1.00
871;DHT22;422;51.280;7.236;2024-02-26T05:06:14;4.00;1.00
871;DHT22;422;51.280;7.236;2024-02-26T05:08:42;4.10;1.00
871;DHT22;422;51.280;7.236;2024-02-26T05:11:09;4.00;1.00
871;DHT22;422;51.280;7.236;2024-02-26T05:13:38;4.00;1.00
871;DHT22;422;51.280;7.236;2024-02-26T05:16:06;4.00;3.30
871;DHT22;422;51.280;7.236;2024-02-26T05:18:33;4.00;52.80
871;DHT22;422;51.280;7.236;2024-02-26T05:21:00;4.00;90.50
871;DHT22;422;51.280;7.236;2024-02-26T05:23:29;4.00;99.90
871;DHT22;422;51.280;7.236;2024-02-26T05:25:56;4.00;99.90
871;DHT22;422;51.280;7.236;2024-02-26T05:28:23;4.00;99.90
871;DHT22;422;51.280;7.236;2024-02-26T05:30:52;3.90;99.90
871;DHT22;422;51.280;7.236;2024-02-26T05:33:19;3.90;99.90
871;DHT22;422;51.280;7.236;2024-02-26T05:35:47;4.00;99.90
871;DHT22;422;51.280;7.236;2024-02-26T05:38:15;3.90;99.90
871;DHT22;422;51.280;7.236;2024-02-26T05:40:42;3.90;99.90
871;DHT22;422;51.280;7.236;2024-02-26T05:43:09;3.90;99.90
871;DHT22;422;51.280;7.236;2024-02-26T05:45:36;3.90;99.90
871;DHT22;422;51.280;7.236;2024-02-26T05:48:05;3.90;99.90
871;DHT22;422;51.280;7.236;2024-02-26T05:50:33;3.90;99.90
871;DHT22;422;51.280;7.236;2024-02-26T05:53:00;3.90;99.90
871;DHT22;422;51.280;7.236;2024-02-26T05:55:27;3.90;99.90
871;DHT22;422;51.280;7.236;2024-02-26T05:57:54;3.90;99.90
871;DHT22;422;51.280;7.236;2024-02-26T06:00:22;3.90;99.90
871;DHT22;422;51.280;7.236;2024-02-26T06:02:49;3.90;99.90
871;DHT22;422;51.280;7.236;2024-02-26T06:05:18;3.90;99.90
871;DHT22;422;51.280;7.236;2024-02-26T06:07:45;3.90;99.90
871;DHT22;422;51.280;7.236;2024-02-26T06:10:12;3.90;99.90
871;DHT22;422;51.280;7.236;2024-02-26T06:12:40;3.90;99.90
871;DHT22;422;51.280;7.236;2024-02-26T06:15:08;3.90;99.90
871;DHT22;422;51.280;7.236;2024-02-26T06:17:35;3.90;99.90
871;DHT22;422;51.280;7.236;2024-02-26T06:20:03;3.90;99.90
871;DHT22;422;51.280;7.236;2024-02-26T06:22:33;3.90;99.90
871;DHT22;422;51.280;7.236;2024-02-26T06:25:00;4.00;99.90
871;DHT22;422;51.280;7.236;2024-02-26T06:27:28;4.00;99.90
871;DHT22;422;51.280;7.236;2024-02-26T06:29:55;4.00;99.90
871;DHT22;422;51.280;7.236;2024-02-26T06:32:22;4.00;99.90
871;DHT22;422;51.280;7.236;2024-02-26T06:34:50;4.00;99.90
871;DHT22;422;51.280;7.236;2024-02-26T06:37:17;4.00;99.90
871;DHT22;422;51.280;7.236;2024-02-26T06:39:46;4.00;99.90
871;DHT22;422;51.280;7.236;2024-02-26T06:42:13;4.00;99.90
871;DHT22;422;51.280;7.236;2024-02-26T06:44:40;4.10;99.90
871;DHT22;422;51.280;7.236;2024-02-26T06:47:08;4.10;99.90
871;DHT22;422;51.280;7.236;2024-02-26T06:49:35;4.10;99.90
871;DHT22;422;51.280;7.236;2024-02-26T06:52:02;4.10;99.90
871;DHT22;422;51.280;7.236;2024-02-26T06:54:30;4.10;99.90
871;DHT22;422;51.280;7.236;2024-02-26T06:56:58;4.10;99.90
871;DHT22;422;51.280;7.236;2024-02-26T06:59:26;4.10;99.90
871;DHT22;422;51.280;7.236;2024-02-26T07:01:54;4.10;99.90
871;DHT22;422;51.280;7.236;2024-02-26T07:04:22;4.10;99.90
871;DHT22;422;51.280;7.236;2024-02-26T07:06:49;4.20;99.90
871;DHT22;422;51.280;7.236;2024-02-26T07:09:16;4.20;99.90
871;DHT22;422;51.280;7.236;2024-02-26T07:11:44;4.20;99.90
871;DHT22;422;51.280;7.236;2024-02-26T07:14:12;4.20;99.90
871;DHT22;422;51.280;7.236;2024-02-26T07:16:40;4.20;99.90
871;DHT22;422;51.280;7.236;2024-02-26T07:19:07;4.20;99.90
871;DHT22;422;51.280;7.236;2024-02-26T07:21:34;4.20;99.90
871;DHT22;422;51.280;7.236;2024-02-26T07:24:02;4.20;99.90
871;DHT22;422;51.280;7.236;2024-02-26T07:26:29;4.20;99.90
871;DHT22;422;51.280;7.236;2024-02-26T07:28:56;4.20;99.90
871;DHT22;422;51.280;7.236;2024-02-26T07:31:25;4.20;99.90
871;DHT22;422;51.280;7.236;2024-02-26T07:33:52;4.20;99.90
871;DHT22;422;51.280;7.236;2024-02-26T07:36:20;4.20;99.90
871;DHT22;422;51.280;7.236;2024-02-26T07:38:47;4.20;99.90
871;DHT22;422;51.280;7.236;2024-02-26T07:41:14;4.30;99.90
871;DHT22;422;51.280;7.236;2024-02-26T07:43:42;4.20;99.90
871;DHT22;422;51.280;7.236;2024-02-26T07:46:11;4.30;99.90
871;DHT22;422;51.280;7.236;2024-02-26T07:48:40;4.30;99.90
871;DHT22;422;51.280;7.236;2024-02-26T07:51:08;4.40;99.90
871;DHT22;422;51.280;7.236;2024-02-26T07:53:35;4.40;99.90
871;DHT22;422;51.280;7.236;2024-02-26T07:56:06;4.50;99.90
871;DHT22;422;51.280;7.236;2024-02-26T07:58:47;4.40;99.90
871;DHT22;422;51.280;7.236;2024-02-26T08:01:15;4.40;99.90
871;DHT22;422;51.280;7.236;2024-02-26T08:03:44;4.40;99.90
871;DHT22;422;51.280;7.236;2024-02-26T08:06:11;4.40;99.90
871;DHT22;422;51.280;7.236;2024-02-26T08:08:38;4.40;99.90
871;DHT22;422;51.280;7.236;2024-02-26T08:11:06;4.40;99.90
871;DHT22;422;51.280;7.236;2024-02-26T08:13:34;4.40;99.90
871;DHT22;422;51.280;7.236;2024-02-26T08:16:02;4.40;99.90
871;DHT22;422;51.280;7.236;2024-02-26T08:18:29;4.50;99.90
871;DHT22;422;51.280;7.236;2024-02-26T08:20:58;4.40;99.90
871;DHT22;422;51.280;7.236;2024-02-26T08:23:25;4.50;99.90
871;DHT22;422;51.280;7.236;2024-02-26T08:25:53;4.60;99.90
871;DHT22;422;51.280;7.236;2024-02-26T08:28:20;4.60;99.90
871;DHT22;422;51.280;7.236;2024-02-26T08:30:48;4.60;99.90
871;DHT22;422;51.280;7.236;2024-02-26T08:33:15;4.60;99.90
871;DHT22;422;51.280;7.236;2024-02-26T08:35:42;4.60;99.90
871;DHT22;422;51.280;7.236;2024-02-26T08:38:11;4.70;99.90
871;DHT22;422;51.280;7.236;2024-02-26T08:40:39;4.60;99.90
871;DHT22;422;51.280;7.236;2024-02-26T08:43:06;4.60;99.90
871;DHT22;422;51.280;7.236;2024-02-26T08:45:34;4.70;99.90
871;DHT22;422;51.280;7.236;2024-02-26T08:48:02;4.80;99.90
871;DHT22;422;51.280;7.236;2024-02-26T08:50:29;4.80;99.90
871;DHT22;422;51.280;7.236;2024-02-26T08:52:56;4.80;99.90
871;DHT22;422;51.280;7.236;2024-02-26T08:55:26;4.80;99.90
871;DHT22;422;51.280;7.236;2024-02-26T08:57:54;4.80;99.90
871;DHT22;422;51.280;7.236;2024-02-26T09:00:21;4.80;99.90
871;DHT22;422;51.280;7.236;2024-02-26T09:02:49;4.80;99.90
871;DHT22;422;51.280;7.236;2024-02-26T09:05:16;4.90;99.90
871;DHT22;422;51.280;7.236;2024-02-26T09:07:44;4.90;99.90
871;DHT22;422;51.280;7.236;2024-02-26T09:10:13;5.00;99.90
871;DHT22;422;51.280;7.236;2024-02-26T09:12:42;5.00;99.90
871;DHT22;422;51.280;7.236;2024-02-26T09:15:09;5.00;99.90
871;DHT22;422;51.280;7.236;2024-02-26T09:17:38;5.00;99.90
871;DHT22;422;51.280;7.236;2024-02-26T09:20:07;5.10;99.90
871;DHT22;422;51.280;7.236;2024-02-26T09:22:35;5.20;99.90
871;DHT22;422;51.280;7.236;2024-02-26T09:25:04;5.20;99.90
871;DHT22;422;51.280;7.236;2024-02-26T09:27:32;5.10;99.90
871;DHT22;422;51.280;7.236;2024-02-26T09:30:01;5.20;99.90
871;DHT22;422;51.280;7.236;2024-02-26T09:32:28;5.20;99.90
871;DHT22;422;51.280;7.236;2024-02-26T09:34:56;5.30;99.90
871;DHT22;422;51.280;7.236;2024-02-26T09:37:23;5.30;99.90
871;DHT22;422;51.280;7.236;2024-02-26T09:39:50;5.40;99.90
871;DHT22;422;51.280;7.236;2024-02-26T09:42:18;5.30;99.90
871;DHT22;422;51.280;7.236;2024-02-26T09:44:46;5.30;99.90
871;DHT22;422;51.280;7.236;2024-02-26T09:47:18;5.30;99.90
871;DHT22;422;51.280;7.236;2024-02-26T09:49:47;5.30;99.90
871;DHT22;422;51.280;7.236;2024-02-26T09:52:15;5.40;99.90
871;DHT22;422;51.280;7.236;2024-02-26T09:54:47;5.40;99.90
871;DHT22;422;51.280;7.236;2024-02-26T09:57:15;5.50;99.90
871;DHT22;422;51.280;7.236;2024-02-26T09:59:43;5.60;99.90
871;DHT22;422;51.280;7.236;2024-02-26T10:02:13;5.70;99.90
871;DHT22;422;51.280;7.236;2024-02-26T10:04:42;5.80;99.90
871;DHT22;422;51.280;7.236;2024-02-26T10:07:11;5.70;99.90
871;DHT22;422;51.280;7.236;2024-02-26T10:09:39;5.60;99.90
871;DHT22;422;51.280;7.236;2024-02-26T10:12:08;5.60;99.90
871;DHT22;422;51.280;7.236;2024-02-26T10:14:36;5.70;99.90
871;DHT22;422;51.280;7.236;2024-02-26T10:17:06;5.60;99.90
871;DHT22;422;51.280;7.236;2024-02-26T10:19:34;5.60;99.90
871;DHT22;422;51.280;7.236;2024-02-26T10:22:03;5.60;99.90
871;DHT22;422;51.280;7.236;2024-02-26T10:24:31;5.60;99.90
871;DHT22;422;51.280;7.236;2024-02-26T10:27:00;5.60;99.90
871;DHT22;422;51.280;7.236;2024-02-26T10:29:27;5.70;99.90
871;DHT22;422;51.280;7.236;2024-02-26T10:31:55;5.50;99.90
871;DHT22;422;51.280;7.236;2024-02-26T10:34:23;5.60;99.90
871;DHT22;422;51.280;7.236;2024-02-26T10:36:51;5.60;99.90
871;DHT22;422;51.280;7.236;2024-02-26T10:39:20;5.70;99.90
871;DHT22;422;51.280;7.236;2024-02-26T10:41:47;5.70;99.90
871;DHT22;422;51.280;7.236;2024-02-26T10:44:15;5.70;99.90
871;DHT22;422;51.280;7.236;2024-02-26T10:46:42;5.70;99.90
871;DHT22;422;51.280;7.236;2024-02-26T10:49:14;5.70;99.90
871;DHT22;422;51.280;7.236;2024-02-26T10:51:45;5.60;99.90
871;DHT22;422;51.280;7.236;2024-02-26T10:54:18;5.60;99.90
871;DHT22;422;51.280;7.236;2024-02-26T10:56:48;5.70;99.90
871;DHT22;422;51.280;7.236;2024-02-26T10:59:17;5.70;99.90
871;DHT22;422;51.280;7.236;2024-02-26T11:01:47;5.80;99.90
871;DHT22;422;51.280;7.236;2024-02-26T11:04:16;5.70;99.90
871;DHT22;422;51.280;7.236;2024-02-26T11:06:45;5.80;99.90
871;DHT22;422;51.280;7.236;2024-02-26T11:09:14;6.00;99.90
871;DHT22;422;51.280;7.236;2024-02-26T11:11:41;5.90;99.90
871;DHT22;422;51.280;7.236;2024-02-26T11:14:11;5.90;99.90
871;DHT22;422;51.280;7.236;2024-02-26T11:16:40;6.00;99.90
871;DHT22;422;51.280;7.236;2024-02-26T11:19:09;6.00;99.90
871;DHT22;422;51.280;7.236;2024-02-26T11:21:37;6.10;99.90
871;DHT22;422;51.280;7.236;2024-02-26T11:24:15;6.10;99.90
871;DHT22;422;51.280;7.236;2024-02-26T11:26:49;6.30;99.90
871;DHT22;422;51.280;7.236;2024-02-26T11:29:24;6.30;99.90
871;DHT22;422;51.280;7.236;2024-02-26T11:31:53;6.30;99.90
871;DHT22;422;51.280;7.236;2024-02-26T11:34:20;6.30;99.90
871;DHT22;422;51.280;7.236;2024-02-26T11:36:49;6.40;99.90
871;DHT22;422;51.280;7.236;2024-02-26T11:39:17;6.50;99.90
871;DHT22;422;51.280;7.236;2024-02-26T11:41:45;6.70;99.90
871;DHT22;422;51.280;7.236;2024-02-26T11:44:12;6.90;99.90
871;DHT22;422;51.280;7.236;2024-02-26T11:46:42;6.90;99.90
871;DHT22;422;51.280;7.236;2024-02-26T11:49:31;6.90;99.90
871;DHT22;422;51.280;7.236;2024-02-26T11:52:00;6.90;99.90
871;DHT22;422;51.280;7.236;2024-02-26T11:54:53;6.80;99.90
871;DHT22;422;51.280;7.236;2024-02-26T11:57:25;6.80;99.90
871;DHT22;422;51.280;7.236;2024-02-26T11:59:53;6.80;99.90
871;DHT22;422;51.280;7.236;2024-02-26T12:02:43;6.80;99.90
871;DHT22;422;51.280;7.236;2024-02-26T12:05:12;6.90;99.90
871;DHT22;422;51.280;7.236;2024-02-26T12:07:44;7.00;99.90
871;DHT22;422;51.280;7.236;2024-02-26T12:10:25;7.10;99.90
871;DHT22;422;51.280;7.236;2024-02-26T12:12:58;7.00;99.90
871;DHT22;422;51.280;7.236;2024-02-26T12:15:31;7.00;99.90
871;DHT22;422;51.280;7.236;2024-02-26T12:18:03;7.10;99.90
871;DHT22;422;51.280;7.236;2024-02-26T12:20:31;7.10;99.90
871;DHT22;422;51.280;7.236;2024-02-26T12:22:59;7.00;1.00
871;DHT22;422;51.280;7.236;2024-02-26T12:25:29;7.00;1.00
871;DHT22;422;51.280;7.236;2024-02-26T12:27:59;7.10;1.00
871;DHT22;422;51.280;7.236;2024-02-26T12:30:27;7.00;1.00
871;DHT22;422;51.280;7.236;2024-02-26T12:32:57;6.90;1.00
871;DHT22;422;51.280;7.236;2024-02-26T12:35:28;6.90;1.00
871;DHT22;422;51.280;7.236;2024-02-26T12:37:58;6.90;36.50
871;DHT22;422;51.280;7.236;2024-02-26T12:40:26;7.00;99.90
871;DHT22;422;51.280;7.236;2024-02-26T12:42:54;7.10;99.90
871;DHT22;422;51.280;7.236;2024-02-26T12:45:22;7.20;99.90
871;DHT22;422;51.280;7.236;2024-02-26T12:47:51;7.20;99.90
871;DHT22;422;51.280;7.236;2024-02-26T12:50:19;7.30;99.90
871;DHT22;422;51.280;7.236;2024-02-26T12:52:50;7.30;1.00
871;DHT22;422;51.280;7.236;2024-02-26T12:55:19;7.30;1.00
871;DHT22;422;51.280;7.236;2024-02-26T12:57:47;7.40;99.90
871;DHT22;422;51.280;7.236;2024-02-26T13:00:18;7.40;99.90
871;DHT22;422;51.280;7.236;2024-02-26T13:02:49;7.40;37.30
871;DHT22;422;51.280;7.236;2024-02-26T13:05:18;7.50;25.70
871;DHT22;422;51.280;7.236;2024-02-26T13:07:51;7.50;1.00
871;DHT22;422;51.280;7.236;2024-02-26T13:10:20;7.50;1.00
871;DHT22;422;51.280;7.236;2024-02-26T13:12:49;7.50;1.00
871;DHT22;422;51.280;7.236;2024-02-26T13:15:18;7.60;1.00
871;DHT22;422;51.280;7.236;2024-02-26T13:17:47;7.60;1.00
871;DHT22;422;51.280;7.236;2024-02-26T13:20:26;7.70;1.00
871;DHT22;422;51.280;7.236;2024-02-26T13:23:01;7.70;1.00
871;DHT22;422;51.280;7.236;2024-02-26T13:25:29;7.90;1.00
871;DHT22;422;51.280;7.236;2024-02-26T13:28:07;7.90;99.90
871;DHT22;422;51.280;7.236;2024-02-26T13:30:35;7.90;99.90
871;DHT22;422;51.280;7.236;2024-02-26T13:33:09;8.00;1.00
871;DHT22;422;51.280;7.236;2024-02-26T13:35:37;8.00;1.00
871;DHT22;422;51.280;7.236;2024-02-26T13:38:06;8.10;1.00
871;DHT22;422;51.280;7.236;2024-02-26T13:40:33;8.20;1.00
871;DHT22;422;51.280;7.236;2024-02-26T13:43:01;8.20;99.90
871;DHT22;422;51.280;7.236;2024-02-26T13:45:29;8.20;99.90
871;DHT22;422;51.280;7.236;2024-02-26T13:48:02;8.30;99.90
871;DHT22;422;51.280;7.236;2024-02-26T13:50:30;8.30;99.90
871;DHT22;422;51.280;7.236;2024-02-26T13:52:58;8.50;99.90
871;DHT22;422;51.280;7.236;2024-02-26T13:55:27;8.40;1.00
871;DHT22;422;51.280;7.236;2024-02-26T13:57:57;8.60;7.70
871;DHT22;422;51.280;7.236;2024-02-26T14:00:27;8.60;1.00
871;DHT22;422;51.280;7.236;2024-02-26T14:02:57;8.70;85.00
871;DHT22;422;51.280;7.236;2024-02-26T14:05:27;8.70;29.40
871;DHT22;422;51.280;7.236;2024-02-26T14:07:55;8.60;1.00
871;DHT22;422;51.280;7.236;2024-02-26T14:10:23;8.60;1.00
871;DHT22;422;51.280;7.236;2024-02-26T14:12:52;8.40;1.00
871;DHT22;422;51.280;7.236;2024-02-26T14:15:20;8.50;1.00
871;DHT22;422;51.280;7.236;2024-02-26T14:17:47;8.40;1.00
871;DHT22;422;51.280;7.236;2024-02-26T14:20:20;8.30;1.00
871;DHT22;422;51.280;7.236;2024-02-26T14:22:48;8.10;1.00
871;DHT22;422;51.280;7.236;2024-02-26T14:25:16;8.00;1.00
871;DHT22;422;51.280;7.236;2024-02-26T14:27:44;7.90;1.00
871;DHT22;422;51.280;7.236;2024-02-26T14:30:13;7.90;9.80
871;DHT22;422;51.280;7.236;2024-02-26T14:32:41;7.80;1.00
871;DHT22;422;51.280;7.236;2024-02-26T14:35:10;7.60;1.00
871;DHT22;422;51.280;7.236;2024-02-26T14:37:37;7.70;1.00
871;DHT22;422;51.280;7.236;2024-02-26T14:40:06;7.80;69.30
871;DHT22;422;51.280;7.236;2024-02-26T14:42:34;7.90;99.90
871;DHT22;422;51.280;7.236;2024-02-26T14:45:03;8.00;90.00
871;DHT22;422;51.280;7.236;2024-02-26T14:47:34;7.90;1.00
871;DHT22;422;51.280;7.236;2024-02-26T14:50:02;7.90;1.00
871;DHT22;422;51.280;7.236;2024-02-26T14:52:29;7.90;1.00
871;DHT22;422;51.280;7.236;2024-02-26T14:54:57;7.80;1.00
871;DHT22;422;51.280;7.236;2024-02-26T14:57:25;7.90;1.00
871;DHT22;422;51.280;7.236;2024-02-26T14:59:52;7.90;1.00
871;DHT22;422;51.280;7.236;2024-02-26T15:02:21;7.90;1.00
871;DHT22;422;51.280;7.236;2024-02-26T15:04:50;8.00;1.00
871;DHT22;422;51.280;7.236;2024-02-26T15:07:18;7.90;1.00
871;DHT22;422;51.280;7.236;2024-02-26T15:09:46;7.80;1.00
871;DHT22;422;51.280;7.236;2024-02-26T15:12:16;7.80;1.00
871;DHT22;422;51.280;7.236;2024-02-26T15:14:46;7.70;1.00
871;DHT22;422;51.280;7.236;2024-02-26T15:17:13;7.70;1.00
871;DHT22;422;51.280;7.236;2024-02-26T15:19:41;7.70;1.00
871;DHT22;422;51.280;7.236;2024-02-26T15:22:10;7.70;1.00
871;DHT22;422;51.280;7.236;2024-02-26T15:24:38;7.70;1.00
871;DHT22;422;51.280;7.236;2024-02-26T15:27:05;7.70;1.00
871;DHT22;422;51.280;7.236;2024-02-26T15:29:33;7.60;1.00
871;DHT22;422;51.280;7.236;2024-02-26T15:32:02;7.70;1.00
871;DHT22;422;51.280;7.236;2024-02-26T15:34:30;7.70;1.00
871;DHT22;422;51.280;7.236;2024-02-26T15:36:57;7.70;1.00
871;DHT22;422;51.280;7.236;2024-02-26T15:39:26;7.70;1.00
871;DHT22;422;51.280;7.236;2024-02-26T15:41:54;7.70;1.00
871;DHT22;422;51.280;7.236;2024-02-26T15:44:23;7.60;1.00
871;DHT22;422;51.280;7.236;2024-02-26T15:46:51;7.50;1.00
871;DHT22;422;51.280;7.236;2024-02-26T15:49:19;7.50;1.00
871;DHT22;422;51.280;7.236;2024-02-26T15:51:46;7.40;1.00
871;DHT22;422;51.280;7.236;2024-02-26T15:54:14;7.40;1.00
871;DHT22;422;51.280;7.236;2024-02-26T15:56:43;7.40;1.00
871;DHT22;422;51.280;7.236;2024-02-26T15:59:11;7.30;1.00
871;DHT22;422;51.280;7.236;2024-02-26T16:01:39;7.40;1.00
871;DHT22;422;51.280;7.236;2024-02-26T16:04:10;7.30;1.00
871;DHT22;422;51.280;7.236;2024-02-26T16:06:42;7.30;1.00
871;DHT22;422;51.280;7.236;2024-02-26T16:09:10;7.20;1.00
871;DHT22;422;51.280;7.236;2024-02-26T16:11:39;7.20;1.00
871;DHT22;422;51.280;7.236;2024-02-26T16:14:14;7.20;1.00
871;DHT22;422;51.280;7.236;2024-02-26T16:16:53;7.20;99.90
871;DHT22;422;51.280;7.236;2024-02-26T16:19:23;7.10;99.90
871;DHT22;422;51.280;7.236;2024-02-26T16:21:54;7.10;99.90
871;DHT22;422;51.280;7.236;2024-02-26T16:24:21;7.10;99.90
871;DHT22;422;51.280;7.236;2024-02-26T16:26:49;7.00;99.90
871;DHT22;422;51.280;7.236;2024-02-26T16:29:18;7.00;99.90
871;DHT22;422;51.280;7.236;2024-02-26T16:31:46;7.00;99.90
871;DHT22;422;51.280;7.236;2024-02-26T16:34:14;6.90;99.90
871;DHT22;422;51.280;7.236;2024-02-26T16:36:41;6.90;99.90
871;DHT22;422;51.280;7.236;2024-02-26T16:39:09;6.90;99.90
871;DHT22;422;51.280;7.236;2024-02-26T16:41:37;6.90;1.00
871;DHT22;422;51.280;7.236;2024-02-26T16:44:06;6.80;99.90
871;DHT22;422;51.280;7.236;2024-02-26T16:46:35;6.80;99.90
871;DHT22;422;51.280;7.236;2024-02-26T16:49:03;6.80;99.90
871;DHT22;422;51.280;7.236;2024-02-26T16:51:37;6.70;99.90
871;DHT22;422;51.280;7.236;2024-02-26T16:54:05;6.70;99.90
871;DHT22;422;51.280;7.236;2024-02-26T16:56:33;6.70;99.90
871;DHT22;422;51.280;7.236;2024-02-26T16:59:02;6.70;99.90
871;DHT22;422;51.280;7.236;2024-02-26T17:01:31;6.60;99.90
871;DHT22;422;51.280;7.236;2024-02-26T17:04:00;6.60;1.00